createdAt,value
2018-11-14T00:01:39.765Z,26.00
2018-11-14T00:04:38.585Z,26.00
2018-11-14T00:07:31.967Z,26.00
2018-11-14T00:10:43.494Z,26.00
2018-11-14T00:13:37.500Z,26.00
2018-11-14T00:16:31.048Z,26.00
2018-11-14T00:19:24.650Z,26.00
2018-11-14T00:22:18.226Z,26.00
2018-11-14T00:25:12.007Z,26.00
2018-11-14T00:28:05.677Z,26.00
2018-11-14T00:31:02.866Z,26.00
2018-11-14T00:33:59.535Z,26.00
2018-11-14T00:36:53.710Z,26.00
2018-11-14T00:39:50.188Z,25.90
2018-11-14T00:42:44.193Z,26.00
2018-11-14T00:45:37.818Z,26.00
2018-11-14T00:48:31.700Z,26.00
2018-11-14T00:51:25.277Z,26.00
2018-11-14T00:54:18.873Z,25.90
2018-11-14T00:57:12.698Z,25.90
2018-11-14T01:00:06.982Z,25.90
2018-11-14T01:03:03.798Z,25.90
2018-11-14T01:05:57.718Z,26.00
2018-11-14T01:08:51.314Z,26.00
2018-11-14T01:11:45.168Z,25.90
2018-11-14T01:14:38.724Z,25.90
2018-11-14T01:17:32.714Z,26.00
2018-11-14T01:20:26.310Z,25.90
2018-11-14T01:23:19.968Z,25.90
2018-11-14T01:26:14.139Z,26.00
2018-11-14T01:29:11.052Z,26.00
2018-11-14T01:32:02.211Z,26.00
2018-11-14T01:34:56.183Z,25.90
2018-11-14T01:37:50.128Z,25.90
2018-11-14T01:40:44.209Z,25.90
2018-11-14T01:43:39.660Z,25.90
2018-11-14T01:46:33.500Z,25.90
2018-11-14T01:49:27.352Z,25.90
2018-11-14T01:52:21.259Z,25.90
2018-11-14T01:55:19.621Z,25.90
2018-11-14T01:58:13.021Z,25.90
2018-11-14T02:01:06.466Z,25.90
2018-11-14T02:04:03.478Z,25.90
2018-11-14T02:06:57.014Z,25.90
2018-11-14T02:09:50.729Z,25.90
2018-11-14T02:12:45.073Z,25.90
2018-11-14T02:15:39.284Z,25.90
2018-11-14T02:18:32.565Z,25.90
2018-11-14T02:21:26.713Z,25.90
2018-11-14T02:24:23.790Z,25.90
2018-11-14T02:27:19.644Z,25.90
2018-11-14T02:30:15.409Z,25.90
2018-11-14T02:33:18.518Z,25.90
2018-11-14T02:36:12.260Z,25.90
2018-11-14T02:39:06.312Z,25.90
2018-11-14T02:42:00.391Z,25.90
2018-11-14T02:44:54.292Z,25.90
2018-11-14T02:47:47.562Z,25.90
2018-11-14T02:50:41.278Z,25.90
2018-11-14T02:53:35.617Z,25.90
2018-11-14T02:56:29.632Z,25.90
2018-11-14T02:59:23.415Z,25.90
2018-11-14T03:02:17.296Z,25.90
2018-11-14T03:05:12.531Z,25.90
2018-11-14T03:08:06.250Z,25.90
2018-11-14T03:10:59.717Z,25.90
2018-11-14T03:13:53.813Z,25.90
2018-11-14T03:16:47.776Z,25.90
2018-11-14T03:19:42.040Z,25.90
2018-11-14T03:22:35.518Z,25.90
2018-11-14T03:25:32.571Z,25.90
2018-11-14T03:28:27.412Z,25.90
2018-11-14T03:31:21.472Z,25.90
2018-11-14T03:34:15.561Z,25.90
2018-11-14T03:37:10.130Z,25.90
2018-11-14T03:40:04.551Z,25.90
2018-11-14T03:42:58.972Z,25.90
2018-11-14T03:45:53.047Z,25.90
2018-11-14T03:48:49.780Z,25.90
2018-11-14T03:51:43.716Z,25.90
2018-11-14T03:54:37.757Z,25.90
2018-11-14T03:57:31.802Z,25.90
2018-11-14T04:00:26.134Z,25.90
2018-11-14T04:03:20.885Z,25.90
2018-11-14T04:06:14.610Z,25.90
2018-11-14T04:09:11.137Z,25.90
2018-11-14T04:12:05.517Z,25.90
2018-11-14T04:14:59.643Z,25.90
2018-11-14T04:17:54.119Z,25.90
2018-11-14T04:20:48.388Z,25.90
2018-11-14T04:23:54.120Z,25.90
2018-11-14T04:26:47.594Z,25.90
2018-11-14T04:29:41.505Z,25.90
2018-11-14T04:32:35.236Z,25.90
2018-11-14T04:35:32.081Z,25.90
2018-11-14T04:38:25.707Z,25.90
2018-11-14T04:41:19.186Z,25.90
2018-11-14T04:44:13.708Z,25.90
2018-11-14T04:47:07.550Z,25.90
2018-11-14T04:50:09.726Z,25.90
2018-11-14T04:53:10.661Z,25.90
2018-11-14T04:56:17.111Z,25.90
2018-11-14T04:59:16.613Z,25.90
2018-11-14T05:02:17.276Z,25.90
2018-11-14T05:05:15.517Z,25.90
2018-11-14T05:08:17.271Z,26.00
2018-11-14T05:11:21.606Z,26.00
2018-11-14T05:14:22.031Z,26.00
2018-11-14T05:17:17.676Z,26.00
2018-11-14T05:20:15.071Z,26.00
2018-11-14T05:23:13.736Z,26.00
2018-11-14T05:26:18.754Z,26.00
2018-11-14T05:29:21.675Z,26.10
2018-11-14T05:32:13.779Z,26.10
2018-11-14T05:35:26.980Z,26.10
2018-11-14T05:38:22.593Z,26.10
2018-11-14T05:41:18.132Z,26.10
2018-11-14T05:44:13.836Z,26.10
2018-11-14T05:47:14.615Z,26.10
2018-11-14T05:50:11.356Z,26.10
2018-11-14T05:53:06.455Z,26.20
2018-11-14T05:56:02.686Z,26.10
2018-11-14T05:59:01.935Z,26.10
2018-11-14T06:01:57.424Z,26.10
2018-11-14T06:04:55.190Z,26.20
2018-11-14T06:07:52.112Z,26.20
2018-11-14T06:10:48.711Z,26.20
2018-11-14T06:13:45.673Z,26.20
2018-11-14T06:16:44.256Z,26.20
2018-11-14T06:19:40.623Z,26.20
2018-11-14T06:22:39.507Z,26.20
2018-11-14T06:25:37.402Z,26.20
2018-11-14T06:28:36.215Z,26.20
2018-11-14T06:31:32.155Z,26.20
2018-11-14T06:34:31.685Z,26.20
2018-11-14T06:37:30.733Z,26.20
2018-11-14T06:40:29.067Z,26.20
2018-11-14T06:43:23.114Z,26.20
2018-11-14T06:46:21.669Z,26.20
2018-11-14T06:49:18.156Z,26.20
2018-11-14T06:52:13.675Z,26.20
2018-11-14T06:55:08.986Z,26.20
2018-11-14T06:58:05.110Z,26.20
2018-11-14T07:01:06.953Z,26.20
2018-11-14T07:04:03.927Z,26.20
2018-11-14T07:07:00.579Z,26.20
2018-11-14T07:10:09.849Z,26.20
2018-11-14T07:13:19.267Z,26.20
2018-11-14T07:16:12.166Z,26.20
2018-11-14T07:19:08.742Z,26.20
2018-11-14T07:22:04.590Z,26.20
2018-11-14T07:25:01.857Z,26.20
2018-11-14T07:27:57.218Z,26.20
2018-11-14T07:30:56.650Z,26.20
2018-11-14T07:33:54.357Z,26.20
2018-11-14T07:36:49.974Z,26.20
2018-11-14T07:39:44.905Z,26.20
2018-11-14T07:42:44.090Z,26.20
2018-11-14T07:45:40.643Z,26.20
2018-11-14T07:48:35.684Z,26.20
2018-11-14T07:51:29.921Z,26.20
2018-11-14T07:54:24.862Z,26.20
2018-11-14T07:57:18.884Z,26.20
2018-11-14T08:00:18.452Z,26.20
2018-11-14T08:03:13.024Z,26.30
2018-11-14T08:06:08.207Z,26.20
2018-11-14T08:09:02.581Z,26.30
2018-11-14T08:12:00.353Z,26.30
2018-11-14T08:14:54.239Z,26.30
2018-11-14T08:17:50.640Z,26.30
2018-11-14T08:20:45.738Z,26.30
2018-11-14T08:23:41.886Z,26.30
2018-11-14T08:26:37.592Z,26.30
2018-11-14T08:29:32.710Z,26.30
2018-11-14T08:32:27.083Z,26.30
2018-11-14T08:35:21.997Z,26.30
2018-11-14T08:38:17.191Z,26.30
2018-11-14T08:41:11.988Z,26.30
2018-11-14T08:44:06.333Z,26.30
2018-11-14T08:47:03.522Z,26.30
2018-11-14T08:49:58.756Z,26.30
2018-11-14T08:53:05.517Z,26.30
2018-11-14T08:56:00.766Z,26.30
2018-11-14T08:59:00.161Z,26.30
2018-11-14T09:01:54.175Z,26.30
2018-11-14T09:04:48.789Z,26.30
2018-11-14T09:07:43.611Z,26.30
2018-11-14T09:10:37.580Z,26.30
2018-11-14T09:13:32.213Z,26.30
2018-11-14T09:16:27.679Z,26.30
2018-11-14T09:19:22.667Z,26.30
2018-11-14T09:22:18.481Z,26.30
2018-11-14T09:25:16.811Z,26.30
2018-11-14T09:28:13.736Z,26.30
2018-11-14T09:31:12.614Z,26.30
2018-11-14T09:34:10.678Z,26.30
2018-11-14T09:37:06.366Z,26.30
2018-11-14T09:40:02.223Z,26.30
2018-11-14T09:42:57.235Z,26.30
2018-11-14T09:45:55.361Z,26.40
2018-11-14T09:48:57.121Z,26.40
2018-11-14T09:51:54.824Z,26.40
2018-11-14T09:54:51.540Z,26.40
2018-11-14T09:57:48.334Z,26.40
2018-11-14T10:00:44.496Z,26.40
2018-11-14T10:03:47.041Z,26.40
2018-11-14T10:06:48.865Z,26.40
2018-11-14T10:09:44.582Z,26.40
2018-11-14T10:13:04.734Z,26.40
2018-11-14T10:15:56.212Z,26.40
2018-11-14T10:18:55.176Z,26.40
2018-11-14T10:21:50.683Z,26.40
2018-11-14T10:24:46.118Z,26.40
2018-11-14T10:27:42.771Z,26.40
2018-11-14T10:30:38.884Z,26.40
2018-11-14T10:33:36.096Z,26.50
2018-11-14T10:36:33.531Z,26.50
2018-11-14T10:39:30.381Z,26.50
2018-11-14T10:42:26.923Z,26.50
2018-11-14T10:45:26.387Z,26.50
2018-11-14T10:48:22.593Z,26.50
2018-11-14T10:51:17.706Z,26.50
2018-11-14T10:54:12.361Z,26.50
2018-11-14T10:57:10.118Z,26.50
2018-11-14T11:00:04.997Z,26.50
2018-11-14T11:03:18.898Z,26.50
2018-11-14T11:06:52.048Z,26.50
2018-11-14T11:10:07.579Z,26.50
2018-11-14T11:13:11.388Z,26.50
2018-11-14T11:16:24.657Z,26.50
2018-11-14T11:19:24.096Z,26.50
2018-11-14T11:22:20.866Z,26.50
2018-11-14T11:25:18.445Z,26.50
2018-11-14T11:28:15.300Z,26.50
2018-11-14T11:31:14.802Z,26.50
2018-11-14T11:34:26.877Z,26.50
2018-11-14T11:37:21.376Z,26.50
2018-11-14T11:40:18.686Z,26.60
2018-11-14T11:43:12.565Z,26.60
2018-11-14T11:46:09.052Z,26.60
2018-11-14T11:49:02.407Z,26.60
2018-11-14T11:52:00.868Z,26.60
2018-11-14T11:54:51.016Z,26.60
2018-11-14T11:57:47.114Z,26.60
2018-11-14T12:00:43.743Z,26.60
2018-11-14T12:03:40.744Z,26.60
2018-11-14T12:06:36.819Z,26.60
2018-11-14T12:09:30.663Z,26.60
2018-11-14T12:12:24.590Z,26.60
2018-11-14T12:15:20.074Z,26.60
2018-11-14T12:18:16.090Z,26.70
2018-11-14T12:21:17.362Z,26.70
2018-11-14T12:24:20.245Z,26.70
2018-11-14T12:27:18.180Z,26.70
2018-11-14T12:30:21.197Z,26.60
2018-11-14T12:33:17.102Z,26.70
2018-11-14T12:36:18.447Z,26.70
2018-11-14T12:39:14.159Z,26.70
2018-11-14T12:42:12.000Z,26.70
2018-11-14T12:45:08.718Z,26.70
2018-11-14T12:48:03.930Z,26.70
2018-11-14T12:50:59.151Z,26.70
2018-11-14T12:53:56.309Z,26.70
2018-11-14T12:56:51.882Z,26.70
2018-11-14T12:59:46.017Z,26.70
2018-11-14T13:02:40.059Z,26.70
2018-11-14T13:05:33.728Z,26.70
2018-11-14T13:08:28.895Z,26.70
2018-11-14T13:11:23.227Z,26.70
2018-11-14T13:14:17.756Z,26.70
2018-11-14T13:17:12.206Z,26.70
2018-11-14T13:20:06.221Z,26.80
2018-11-14T13:23:00.149Z,26.80
2018-11-14T13:25:54.891Z,26.80
2018-11-14T13:28:48.927Z,26.80
2018-11-14T13:31:42.744Z,26.70
2018-11-14T13:34:37.016Z,26.80
2018-11-14T13:37:31.062Z,26.80
2018-11-14T13:40:25.610Z,26.70
2018-11-14T13:43:19.641Z,26.80
2018-11-14T13:46:13.465Z,26.80
2018-11-14T13:49:08.046Z,26.70
2018-11-14T13:52:02.325Z,26.70
2018-11-14T13:54:56.684Z,26.70
2018-11-14T13:57:52.212Z,26.80
2018-11-14T14:00:46.466Z,26.70
2018-11-14T14:03:40.319Z,26.80
2018-11-14T14:06:34.771Z,26.80
2018-11-14T14:09:29.435Z,26.80
2018-11-14T14:12:23.515Z,26.80
2018-11-14T14:15:22.030Z,26.80
2018-11-14T14:18:16.581Z,26.80
2018-11-14T14:21:10.601Z,26.80
2018-11-14T14:24:05.658Z,26.80
2018-11-14T14:27:00.031Z,26.80
2018-11-14T14:29:54.443Z,26.80
2018-11-14T14:32:48.708Z,26.80
2018-11-14T14:35:42.929Z,26.70
2018-11-14T14:38:39.331Z,26.80
2018-11-14T14:41:33.410Z,26.80
2018-11-14T14:44:27.485Z,26.80
2018-11-14T14:47:21.785Z,26.80
2018-11-14T14:50:18.113Z,26.80
2018-11-14T14:53:13.296Z,26.80
2018-11-14T14:56:07.357Z,26.80
2018-11-14T14:59:01.660Z,26.80
2018-11-14T15:01:56.003Z,26.80
2018-11-14T15:04:49.945Z,26.80
2018-11-14T15:07:43.864Z,26.70
2018-11-14T15:10:39.260Z,26.80
2018-11-14T15:13:33.318Z,26.80
2018-11-14T15:16:27.559Z,26.80
2018-11-14T15:19:22.103Z,26.80
2018-11-14T15:22:16.107Z,26.70
2018-11-14T15:25:12.514Z,26.80
2018-11-14T15:28:06.017Z,26.80
2018-11-14T15:30:59.574Z,26.80
2018-11-14T15:33:53.073Z,26.80
2018-11-14T15:36:46.945Z,26.80
2018-11-14T15:39:40.577Z,26.80
2018-11-14T15:42:35.006Z,26.80
2018-11-14T15:45:33.028Z,26.70
2018-11-14T15:48:27.303Z,26.70
2018-11-14T15:51:20.638Z,26.70
2018-11-14T15:54:14.638Z,26.80
2018-11-14T15:57:08.439Z,26.80
2018-11-14T16:00:01.995Z,26.70
2018-11-14T16:02:55.509Z,26.70
2018-11-14T16:05:49.574Z,26.80
2018-11-14T16:08:43.303Z,26.70
2018-11-14T16:11:37.201Z,26.70
2018-11-14T16:14:30.957Z,26.80
2018-11-14T16:17:24.646Z,26.80
2018-11-14T16:20:19.977Z,26.70
2018-11-14T16:23:13.326Z,26.80
2018-11-14T16:26:07.187Z,26.80
2018-11-14T16:29:03.352Z,26.70
2018-11-14T16:31:56.676Z,26.70
2018-11-14T16:34:50.326Z,26.70
2018-11-14T16:37:44.589Z,26.80
2018-11-14T16:40:38.273Z,26.70
2018-11-14T16:43:32.298Z,26.70
2018-11-14T16:46:26.258Z,26.70
2018-11-14T16:49:19.756Z,26.70
2018-11-14T16:52:13.716Z,26.70
2018-11-14T16:55:07.459Z,26.80
2018-11-14T16:58:01.365Z,26.70
2018-11-14T17:00:55.222Z,26.70
2018-11-14T17:03:49.166Z,26.70
2018-11-14T17:06:42.980Z,26.70
2018-11-14T17:09:36.493Z,26.70
2018-11-14T17:12:30.437Z,26.70
2018-11-14T17:15:25.479Z,26.70
2018-11-14T17:18:22.478Z,26.70
2018-11-14T17:21:16.726Z,26.70
2018-11-14T17:24:16.089Z,26.70
2018-11-14T17:27:09.989Z,26.70
2018-11-14T17:30:03.596Z,26.70
2018-11-14T17:32:57.632Z,26.70
2018-11-14T17:35:52.049Z,26.70
2018-11-14T17:38:45.819Z,26.70
2018-11-14T17:41:40.031Z,26.70
2018-11-14T17:44:34.278Z,26.70
2018-11-14T17:47:28.311Z,26.70
2018-11-14T17:50:36.337Z,26.70
2018-11-14T17:53:30.400Z,26.70
2018-11-14T17:56:24.755Z,26.70
2018-11-14T17:59:18.791Z,26.70
2018-11-14T18:02:12.823Z,26.70
2018-11-14T18:05:07.255Z,26.70
2018-11-14T18:08:01.177Z,26.70
2018-11-14T18:10:56.134Z,26.70
2018-11-14T18:13:50.546Z,26.70
2018-11-14T18:16:44.795Z,26.70
2018-11-14T18:19:39.117Z,26.70
2018-11-14T18:22:33.217Z,26.70
2018-11-14T18:25:27.559Z,26.70
2018-11-14T18:28:21.546Z,26.70
2018-11-14T18:31:16.191Z,26.70
2018-11-14T18:34:10.286Z,26.70
2018-11-14T18:37:04.607Z,26.70
2018-11-14T18:39:59.082Z,26.70
2018-11-14T18:42:53.242Z,26.70
2018-11-14T18:45:47.354Z,26.70
2018-11-14T18:48:40.957Z,26.70
2018-11-14T18:51:37.647Z,26.70
2018-11-14T18:54:29.225Z,26.70
2018-11-14T18:57:23.388Z,26.70
2018-11-14T19:00:19.869Z,26.70
2018-11-14T19:03:13.885Z,26.70
2018-11-14T19:06:13.892Z,26.70
2018-11-14T19:09:09.452Z,26.70
2018-11-14T19:12:05.050Z,26.70
2018-11-14T19:14:59.077Z,26.70
2018-11-14T19:17:53.349Z,26.70
2018-11-14T19:20:47.409Z,26.60
2018-11-14T19:23:41.252Z,26.70
2018-11-14T19:26:35.591Z,26.70
2018-11-14T19:29:30.248Z,26.60
2018-11-14T19:32:24.310Z,26.60
2018-11-14T19:35:19.096Z,26.60
2018-11-14T19:38:12.957Z,26.60
2018-11-14T19:41:06.733Z,26.60
2018-11-14T19:44:00.189Z,26.60
2018-11-14T19:46:54.115Z,26.60
2018-11-14T19:49:47.910Z,26.60
2018-11-14T19:52:41.690Z,26.60
2018-11-14T19:55:36.381Z,26.60
2018-11-14T19:58:30.155Z,26.60
2018-11-14T20:01:24.145Z,26.60
2018-11-14T20:04:20.303Z,26.60
2018-11-14T20:07:13.974Z,26.60
2018-11-14T20:10:07.891Z,26.60
2018-11-14T20:13:01.760Z,26.60
2018-11-14T20:15:55.576Z,26.60
2018-11-14T20:18:50.251Z,26.60
2018-11-14T20:21:44.277Z,26.60
2018-11-14T20:24:37.763Z,26.60
2018-11-14T20:27:31.389Z,26.60
2018-11-14T20:30:35.200Z,26.60
2018-11-14T20:33:28.932Z,26.60
2018-11-14T20:36:22.616Z,26.60
2018-11-14T20:39:16.402Z,26.60
2018-11-14T20:42:10.748Z,26.60
2018-11-14T20:45:04.303Z,26.60
2018-11-14T20:47:57.883Z,26.60
2018-11-14T20:50:51.141Z,26.60
2018-11-14T20:53:45.124Z,26.60
2018-11-14T20:56:38.999Z,26.60
2018-11-14T20:59:32.646Z,26.60
2018-11-14T21:02:26.829Z,26.60
2018-11-14T21:05:20.436Z,26.60
2018-11-14T21:08:14.519Z,26.60
2018-11-14T21:11:08.884Z,26.60
2018-11-14T21:14:02.329Z,26.60
2018-11-14T21:16:57.479Z,26.50
2018-11-14T21:19:51.206Z,26.60
2018-11-14T21:22:45.064Z,26.60
2018-11-14T21:25:38.889Z,26.60
2018-11-14T21:28:32.956Z,26.50
2018-11-14T21:31:26.462Z,26.60
2018-11-14T21:34:20.027Z,26.60
2018-11-14T21:37:17.273Z,26.50
2018-11-14T21:40:07.785Z,26.60
2018-11-14T21:43:01.606Z,26.50
2018-11-14T21:45:55.286Z,26.50
2018-11-14T21:48:49.133Z,26.50
2018-11-14T21:51:43.381Z,26.50
2018-11-14T21:54:38.023Z,26.50
2018-11-14T21:57:31.706Z,26.50
2018-11-14T22:00:35.957Z,26.50
2018-11-14T22:03:29.908Z,26.50
2018-11-14T22:06:23.342Z,26.50
2018-11-14T22:09:16.959Z,26.50
2018-11-14T22:12:11.159Z,26.50
2018-11-14T22:15:04.853Z,26.50
2018-11-14T22:17:59.501Z,26.50
2018-11-14T22:20:53.406Z,26.50
2018-11-14T22:23:47.616Z,26.50
2018-11-14T22:26:40.942Z,26.50
2018-11-14T22:29:34.686Z,26.50
2018-11-14T22:32:28.897Z,26.50
2018-11-14T22:35:24.692Z,26.50
2018-11-14T22:38:18.782Z,26.50
2018-11-14T22:41:12.437Z,26.50
2018-11-14T22:44:05.969Z,26.50
2018-11-14T22:47:00.141Z,26.50
2018-11-14T22:49:54.387Z,26.50
2018-11-14T22:52:48.431Z,26.50
2018-11-14T22:55:42.195Z,26.50
2018-11-14T22:58:35.881Z,26.50
2018-11-14T23:01:29.760Z,26.50
2018-11-14T23:04:23.483Z,26.50
2018-11-14T23:07:17.587Z,26.50
2018-11-14T23:10:11.283Z,26.50
2018-11-14T23:13:04.781Z,26.50
2018-11-14T23:15:58.644Z,26.50
2018-11-14T23:18:52.703Z,26.50
2018-11-14T23:21:46.505Z,26.50
2018-11-14T23:24:40.529Z,26.50
2018-11-14T23:27:34.049Z,26.50
2018-11-14T23:30:28.638Z,26.50
2018-11-14T23:33:22.829Z,26.50
2018-11-14T23:36:16.650Z,26.50
2018-11-14T23:39:14.741Z,26.50
2018-11-14T23:42:08.624Z,26.50
2018-11-14T23:45:02.319Z,26.50
2018-11-14T23:47:59.165Z,26.50
2018-11-14T23:50:52.749Z,26.50
2018-11-14T23:53:46.429Z,26.40
2018-11-14T23:56:40.538Z,26.50
2018-11-14T23:59:34.424Z,26.40
